sensor_id;sensor_type;location;lat;lon;timestamp;P1;durP1;ratioP1;P2;durP2;ratioP2
47431;SDS011;33183;52.290;6.144;2023-02-04T00:00:06;11.98;;;4.93;;
47431;SDS011;33183;52.290;6.144;2023-02-04T00:02:33;10.13;;;4.80;;
47431;SDS011;33183;52.290;6.144;2023-02-04T00:04:58;13.00;;;5.78;;
47431;SDS011;33183;52.290;6.144;2023-02-04T00:07:24;11.07;;;4.82;;
47431;SDS011;33183;52.290;6.144;2023-02-04T00:09:50;10.18;;;4.35;;
47431;SDS011;33183;52.290;6.144;2023-02-04T00:12:15;10.38;;;4.90;;
47431;SDS011;33183;52.290;6.144;2023-02-04T00:14:41;8.80;;;3.85;;
47431;SDS011;33183;52.290;6.144;2023-02-04T00:17:06;13.63;;;5.00;;
47431;SDS011;33183;52.290;6.144;2023-02-04T00:19:32;12.02;;;5.25;;
47431;SDS011;33183;52.290;6.144;2023-02-04T00:21:57;12.77;;;5.55;;
47431;SDS011;33183;52.290;6.144;2023-02-04T00:24:23;10.13;;;4.28;;
47431;SDS011;33183;52.290;6.144;2023-02-04T00:26:48;11.15;;;4.65;;
47431;SDS011;33183;52.290;6.144;2023-02-04T00:29:13;11.27;;;5.18;;
47431;SDS011;33183;52.290;6.144;2023-02-04T00:31:39;10.57;;;5.18;;
47431;SDS011;33183;52.290;6.144;2023-02-04T00:34:04;9.45;;;4.20;;
47431;SDS011;33183;52.290;6.144;2023-02-04T00:36:29;9.05;;;4.43;;
47431;SDS011;33183;52.290;6.144;2023-02-04T00:38:54;9.75;;;4.18;;
47431;SDS011;33183;52.290;6.144;2023-02-04T00:41:20;12.32;;;4.85;;
47431;SDS011;33183;52.290;6.144;2023-02-04T00:43:45;10.05;;;4.22;;
47431;SDS011;33183;52.290;6.144;2023-02-04T00:46:10;12.45;;;4.53;;
47431;SDS011;33183;52.290;6.144;2023-02-04T00:48:36;10.95;;;5.18;;
47431;SDS011;33183;52.290;6.144;2023-02-04T00:51:01;10.98;;;4.60;;
47431;SDS011;33183;52.290;6.144;2023-02-04T00:53:26;7.82;;;3.78;;
47431;SDS011;33183;52.290;6.144;2023-02-04T00:55:51;10.15;;;4.38;;
47431;SDS011;33183;52.290;6.144;2023-02-04T00:58:17;9.43;;;4.07;;
47431;SDS011;33183;52.290;6.144;2023-02-04T01:00:42;11.90;;;4.53;;
47431;SDS011;33183;52.290;6.144;2023-02-04T01:03:07;9.70;;;4.05;;
47431;SDS011;33183;52.290;6.144;2023-02-04T01:05:33;10.80;;;3.67;;
47431;SDS011;33183;52.290;6.144;2023-02-04T01:07:58;9.45;;;3.85;;
47431;SDS011;33183;52.290;6.144;2023-02-04T01:10:23;8.57;;;4.07;;
47431;SDS011;33183;52.290;6.144;2023-02-04T01:12:48;9.18;;;3.63;;
47431;SDS011;33183;52.290;6.144;2023-02-04T01:15:14;11.80;;;4.60;;
47431;SDS011;33183;52.290;6.144;2023-02-04T01:17:39;9.77;;;4.57;;
47431;SDS011;33183;52.290;6.144;2023-02-04T01:20:05;9.98;;;4.20;;
47431;SDS011;33183;52.290;6.144;2023-02-04T01:22:31;9.82;;;3.97;;
47431;SDS011;33183;52.290;6.144;2023-02-04T01:24:56;10.52;;;4.63;;
47431;SDS011;33183;52.290;6.144;2023-02-04T01:27:22;9.65;;;4.45;;
47431;SDS011;33183;52.290;6.144;2023-02-04T01:29:47;9.98;;;4.15;;
47431;SDS011;33183;52.290;6.144;2023-02-04T01:32:12;9.02;;;4.13;;
47431;SDS011;33183;52.290;6.144;2023-02-04T01:34:37;12.32;;;4.18;;
47431;SDS011;33183;52.290;6.144;2023-02-04T01:37:03;7.60;;;3.47;;
47431;SDS011;33183;52.290;6.144;2023-02-04T01:39:28;11.85;;;4.50;;
47431;SDS011;33183;52.290;6.144;2023-02-04T01:41:53;9.48;;;3.28;;
47431;SDS011;33183;52.290;6.144;2023-02-04T01:44:19;7.18;;;3.25;;
47431;SDS011;33183;52.290;6.144;2023-02-04T01:46:44;9.55;;;4.05;;
47431;SDS011;33183;52.290;6.144;2023-02-04T01:49:09;7.60;;;3.85;;
47431;SDS011;33183;52.290;6.144;2023-02-04T01:51:35;9.73;;;4.50;;
47431;SDS011;33183;52.290;6.144;2023-02-04T01:54:01;10.02;;;4.03;;
47431;SDS011;33183;52.290;6.144;2023-02-04T01:56:28;8.43;;;3.63;;
47431;SDS011;33183;52.290;6.144;2023-02-04T01:58:54;10.55;;;4.00;;
47431;SDS011;33183;52.290;6.144;2023-02-04T02:01:34;6.10;;;3.25;;
47431;SDS011;33183;52.290;6.144;2023-02-04T02:04:06;9.38;;;3.63;;
47431;SDS011;33183;52.290;6.144;2023-02-04T02:06:33;6.72;;;3.40;;
47431;SDS011;33183;52.290;6.144;2023-02-04T02:08:59;7.68;;;3.65;;
47431;SDS011;33183;52.290;6.144;2023-02-04T02:11:25;9.38;;;3.72;;
47431;SDS011;33183;52.290;6.144;2023-02-04T02:13:50;10.80;;;3.80;;
47431;SDS011;33183;52.290;6.144;2023-02-04T02:16:16;9.38;;;3.25;;
47431;SDS011;33183;52.290;6.144;2023-02-04T02:18:41;8.57;;;3.72;;
47431;SDS011;33183;52.290;6.144;2023-02-04T02:21:08;8.18;;;3.38;;
47431;SDS011;33183;52.290;6.144;2023-02-04T02:23:49;8.23;;;3.35;;
47431;SDS011;33183;52.290;6.144;2023-02-04T02:26:15;7.68;;;3.40;;
47431;SDS011;33183;52.290;6.144;2023-02-04T02:28:42;9.57;;;3.38;;
47431;SDS011;33183;52.290;6.144;2023-02-04T02:31:08;9.20;;;3.33;;
47431;SDS011;33183;52.290;6.144;2023-02-04T02:33:33;9.02;;;3.40;;
47431;SDS011;33183;52.290;6.144;2023-02-04T02:35:59;10.82;;;4.03;;
47431;SDS011;33183;52.290;6.144;2023-02-04T02:38:24;7.10;;;3.03;;
47431;SDS011;33183;52.290;6.144;2023-02-04T02:40:49;9.63;;;3.65;;
47431;SDS011;33183;52.290;6.144;2023-02-04T02:43:17;8.77;;;3.65;;
47431;SDS011;33183;52.290;6.144;2023-02-04T02:45:45;8.32;;;3.50;;
47431;SDS011;33183;52.290;6.144;2023-02-04T02:48:11;9.60;;;3.55;;
47431;SDS011;33183;52.290;6.144;2023-02-04T02:50:37;8.52;;;3.65;;
47431;SDS011;33183;52.290;6.144;2023-02-04T02:53:02;9.82;;;4.72;;
47431;SDS011;33183;52.290;6.144;2023-02-04T02:55:28;11.65;;;4.15;;
47431;SDS011;33183;52.290;6.144;2023-02-04T02:57:54;9.85;;;4.10;;
47431;SDS011;33183;52.290;6.144;2023-02-04T03:00:23;10.05;;;4.15;;
47431;SDS011;33183;52.290;6.144;2023-02-04T03:03:01;8.02;;;3.40;;
47431;SDS011;33183;52.290;6.144;2023-02-04T03:05:42;9.35;;;3.67;;
47431;SDS011;33183;52.290;6.144;2023-02-04T03:08:09;8.00;;;3.55;;
47431;SDS011;33183;52.290;6.144;2023-02-04T03:10:36;6.88;;;3.38;;
47431;SDS011;33183;52.290;6.144;2023-02-04T03:13:02;8.25;;;3.78;;
47431;SDS011;33183;52.290;6.144;2023-02-04T03:15:28;7.93;;;4.35;;
47431;SDS011;33183;52.290;6.144;2023-02-04T03:17:53;9.25;;;3.28;;
47431;SDS011;33183;52.290;6.144;2023-02-04T03:20:21;9.38;;;3.47;;
47431;SDS011;33183;52.290;6.144;2023-02-04T03:22:48;7.90;;;3.53;;
47431;SDS011;33183;52.290;6.144;2023-02-04T03:25:13;7.70;;;3.13;;
47431;SDS011;33183;52.290;6.144;2023-02-04T03:27:39;6.97;;;3.15;;
47431;SDS011;33183;52.290;6.144;2023-02-04T03:30:04;6.63;;;2.88;;
47431;SDS011;33183;52.290;6.144;2023-02-04T03:32:30;7.50;;;3.53;;
47431;SDS011;33183;52.290;6.144;2023-02-04T03:34:55;7.93;;;3.30;;
47431;SDS011;33183;52.290;6.144;2023-02-04T03:37:21;9.18;;;3.17;;
47431;SDS011;33183;52.290;6.144;2023-02-04T03:39:46;9.95;;;3.42;;
47431;SDS011;33183;52.290;6.144;2023-02-04T03:42:11;7.25;;;3.42;;
47431;SDS011;33183;52.290;6.144;2023-02-04T03:44:36;7.47;;;3.22;;
47431;SDS011;33183;52.290;6.144;2023-02-04T03:47:02;8.07;;;3.42;;
47431;SDS011;33183;52.290;6.144;2023-02-04T03:49:27;6.93;;;2.90;;
47431;SDS011;33183;52.290;6.144;2023-02-04T03:51:52;6.63;;;3.22;;
47431;SDS011;33183;52.290;6.144;2023-02-04T03:54:18;7.70;;;3.63;;
47431;SDS011;33183;52.290;6.144;2023-02-04T03:56:43;8.13;;;3.42;;
47431;SDS011;33183;52.290;6.144;2023-02-04T03:59:08;7.03;;;2.88;;
47431;SDS011;33183;52.290;6.144;2023-02-04T04:01:33;7.75;;;3.42;;
47431;SDS011;33183;52.290;6.144;2023-02-04T04:03:59;6.43;;;3.10;;
47431;SDS011;33183;52.290;6.144;2023-02-04T04:06:24;9.85;;;3.40;;
47431;SDS011;33183;52.290;6.144;2023-02-04T04:08:49;9.98;;;3.17;;
47431;SDS011;33183;52.290;6.144;2023-02-04T04:11:14;9.52;;;3.95;;
47431;SDS011;33183;52.290;6.144;2023-02-04T04:13:40;6.93;;;3.08;;
47431;SDS011;33183;52.290;6.144;2023-02-04T04:16:06;9.25;;;3.15;;
47431;SDS011;33183;52.290;6.144;2023-02-04T04:18:33;6.15;;;2.97;;
47431;SDS011;33183;52.290;6.144;2023-02-04T04:20:58;7.85;;;3.15;;
47431;SDS011;33183;52.290;6.144;2023-02-04T04:23:24;7.35;;;3.10;;
47431;SDS011;33183;52.290;6.144;2023-02-04T04:25:49;6.85;;;2.88;;
47431;SDS011;33183;52.290;6.144;2023-02-04T04:28:14;6.32;;;2.88;;
47431;SDS011;33183;52.290;6.144;2023-02-04T04:30:40;8.07;;;3.22;;
47431;SDS011;33183;52.290;6.144;2023-02-04T04:33:05;7.90;;;2.85;;
47431;SDS011;33183;52.290;6.144;2023-02-04T04:35:31;8.80;;;3.45;;
47431;SDS011;33183;52.290;6.144;2023-02-04T04:37:56;8.10;;;2.97;;
47431;SDS011;33183;52.290;6.144;2023-02-04T04:40:21;8.35;;;3.42;;
47431;SDS011;33183;52.290;6.144;2023-02-04T04:42:46;6.57;;;2.72;;
47431;SDS011;33183;52.290;6.144;2023-02-04T04:45:12;6.68;;;2.60;;
47431;SDS011;33183;52.290;6.144;2023-02-04T04:47:38;7.15;;;2.63;;
47431;SDS011;33183;52.290;6.144;2023-02-04T04:50:03;10.82;;;4.10;;
47431;SDS011;33183;52.290;6.144;2023-02-04T04:52:29;7.85;;;3.17;;
47431;SDS011;33183;52.290;6.144;2023-02-04T04:54:54;6.85;;;3.08;;
47431;SDS011;33183;52.290;6.144;2023-02-04T04:57:19;5.22;;;2.55;;
47431;SDS011;33183;52.290;6.144;2023-02-04T04:59:45;6.25;;;2.85;;
47431;SDS011;33183;52.290;6.144;2023-02-04T05:02:10;9.27;;;3.33;;
47431;SDS011;33183;52.290;6.144;2023-02-04T05:04:35;8.27;;;3.13;;
47431;SDS011;33183;52.290;6.144;2023-02-04T05:07:01;8.07;;;2.97;;
47431;SDS011;33183;52.290;6.144;2023-02-04T05:09:26;6.70;;;2.70;;
47431;SDS011;33183;52.290;6.144;2023-02-04T05:11:51;7.35;;;3.20;;
47431;SDS011;33183;52.290;6.144;2023-02-04T05:14:16;7.75;;;2.85;;
47431;SDS011;33183;52.290;6.144;2023-02-04T05:16:42;8.23;;;2.75;;
47431;SDS011;33183;52.290;6.144;2023-02-04T05:19:07;7.93;;;2.80;;
47431;SDS011;33183;52.290;6.144;2023-02-04T05:21:32;7.72;;;3.60;;
47431;SDS011;33183;52.290;6.144;2023-02-04T05:23:58;7.28;;;3.58;;
47431;SDS011;33183;52.290;6.144;2023-02-04T05:26:23;6.20;;;3.25;;
47431;SDS011;33183;52.290;6.144;2023-02-04T05:28:48;6.80;;;2.97;;
47431;SDS011;33183;52.290;6.144;2023-02-04T05:31:13;8.02;;;2.72;;
47431;SDS011;33183;52.290;6.144;2023-02-04T05:33:39;5.47;;;2.88;;
47431;SDS011;33183;52.290;6.144;2023-02-04T05:36:04;6.70;;;2.97;;
47431;SDS011;33183;52.290;6.144;2023-02-04T05:38:29;6.07;;;2.70;;
47431;SDS011;33183;52.290;6.144;2023-02-04T05:40:56;8.15;;;3.60;;
47431;SDS011;33183;52.290;6.144;2023-02-04T05:43:21;8.55;;;2.78;;
47431;SDS011;33183;52.290;6.144;2023-02-04T05:45:46;6.32;;;3.08;;
47431;SDS011;33183;52.290;6.144;2023-02-04T05:48:11;7.13;;;2.83;;
47431;SDS011;33183;52.290;6.144;2023-02-04T05:50:37;6.25;;;2.60;;
47431;SDS011;33183;52.290;6.144;2023-02-04T05:53:02;6.18;;;2.60;;
47431;SDS011;33183;52.290;6.144;2023-02-04T05:55:27;5.60;;;2.35;;
47431;SDS011;33183;52.290;6.144;2023-02-04T05:57:52;6.68;;;3.08;;
47431;SDS011;33183;52.290;6.144;2023-02-04T06:00:18;6.43;;;2.78;;
47431;SDS011;33183;52.290;6.144;2023-02-04T06:02:43;7.20;;;2.65;;
47431;SDS011;33183;52.290;6.144;2023-02-04T06:05:09;4.70;;;2.50;;
47431;SDS011;33183;52.290;6.144;2023-02-04T06:07:34;7.50;;;3.10;;
47431;SDS011;33183;52.290;6.144;2023-02-04T06:09:59;4.43;;;2.35;;
47431;SDS011;33183;52.290;6.144;2023-02-04T06:12:24;5.97;;;2.60;;
47431;SDS011;33183;52.290;6.144;2023-02-04T06:14:50;5.60;;;2.50;;
47431;SDS011;33183;52.290;6.144;2023-02-04T06:17:15;7.68;;;2.60;;
47431;SDS011;33183;52.290;6.144;2023-02-04T06:19:40;7.78;;;3.15;;
47431;SDS011;33183;52.290;6.144;2023-02-04T06:22:05;7.60;;;2.60;;
47431;SDS011;33183;52.290;6.144;2023-02-04T06:24:31;6.97;;;2.80;;
47431;SDS011;33183;52.290;6.144;2023-02-04T06:26:56;7.07;;;2.83;;
47431;SDS011;33183;52.290;6.144;2023-02-04T06:29:21;7.55;;;3.03;;
47431;SDS011;33183;52.290;6.144;2023-02-04T06:31:46;9.07;;;2.72;;
47431;SDS011;33183;52.290;6.144;2023-02-04T06:34:13;6.30;;;2.85;;
47431;SDS011;33183;52.290;6.144;2023-02-04T06:36:38;6.25;;;2.88;;
47431;SDS011;33183;52.290;6.144;2023-02-04T06:39:04;6.45;;;2.58;;
47431;SDS011;33183;52.290;6.144;2023-02-04T06:41:29;9.13;;;2.78;;
47431;SDS011;33183;52.290;6.144;2023-02-04T06:43:54;6.78;;;2.75;;
47431;SDS011;33183;52.290;6.144;2023-02-04T06:46:19;6.13;;;2.50;;
47431;SDS011;33183;52.290;6.144;2023-02-04T06:48:45;6.82;;;2.83;;
47431;SDS011;33183;52.290;6.144;2023-02-04T06:51:10;6.80;;;2.38;;
47431;SDS011;33183;52.290;6.144;2023-02-04T06:53:35;5.05;;;2.33;;
47431;SDS011;33183;52.290;6.144;2023-02-04T06:56:01;6.53;;;2.38;;
47431;SDS011;33183;52.290;6.144;2023-02-04T06:58:26;5.93;;;2.42;;
47431;SDS011;33183;52.290;6.144;2023-02-04T07:00:51;7.03;;;2.60;;
47431;SDS011;33183;52.290;6.144;2023-02-04T07:03:16;5.40;;;2.28;;
47431;SDS011;33183;52.290;6.144;2023-02-04T07:05:42;7.35;;;2.47;;
47431;SDS011;33183;52.290;6.144;2023-02-04T07:08:07;7.60;;;3.45;;
47431;SDS011;33183;52.290;6.144;2023-02-04T07:10:32;8.80;;;2.95;;
47431;SDS011;33183;52.290;6.144;2023-02-04T07:12:57;6.75;;;2.70;;
47431;SDS011;33183;52.290;6.144;2023-02-04T07:15:23;5.50;;;2.40;;
47431;SDS011;33183;52.290;6.144;2023-02-04T07:17:48;4.93;;;2.30;;
47431;SDS011;33183;52.290;6.144;2023-02-04T07:20:13;6.63;;;1.92;;
47431;SDS011;33183;52.290;6.144;2023-02-04T07:22:39;6.75;;;2.70;;
47431;SDS011;33183;52.290;6.144;2023-02-04T07:25:05;5.65;;;2.25;;
47431;SDS011;33183;52.290;6.144;2023-02-04T07:27:30;5.80;;;2.58;;
47431;SDS011;33183;52.290;6.144;2023-02-04T07:29:56;6.72;;;2.78;;
47431;SDS011;33183;52.290;6.144;2023-02-04T07:32:21;6.68;;;3.20;;
47431;SDS011;33183;52.290;6.144;2023-02-04T07:34:46;7.60;;;2.75;;
47431;SDS011;33183;52.290;6.144;2023-02-04T07:37:12;5.75;;;2.38;;
47431;SDS011;33183;52.290;6.144;2023-02-04T07:39:37;7.13;;;2.60;;
47431;SDS011;33183;52.290;6.144;2023-02-04T07:42:02;5.97;;;2.15;;
47431;SDS011;33183;52.290;6.144;2023-02-04T07:44:28;3.88;;;2.08;;
47431;SDS011;33183;52.290;6.144;2023-02-04T07:46:53;4.85;;;2.10;;
47431;SDS011;33183;52.290;6.144;2023-02-04T07:49:19;6.03;;;2.25;;
47431;SDS011;33183;52.290;6.144;2023-02-04T07:51:44;6.28;;;2.83;;
47431;SDS011;33183;52.290;6.144;2023-02-04T07:54:09;5.07;;;2.50;;
47431;SDS011;33183;52.290;6.144;2023-02-04T07:56:34;6.53;;;3.00;;
47431;SDS011;33183;52.290;6.144;2023-02-04T07:59:00;5.22;;;1.98;;
47431;SDS011;33183;52.290;6.144;2023-02-04T08:01:25;4.35;;;1.70;;
47431;SDS011;33183;52.290;6.144;2023-02-04T08:03:50;5.50;;;2.03;;
47431;SDS011;33183;52.290;6.144;2023-02-04T08:06:15;7.97;;;2.70;;
47431;SDS011;33183;52.290;6.144;2023-02-04T08:08:41;4.07;;;2.20;;
47431;SDS011;33183;52.290;6.144;2023-02-04T08:11:06;6.78;;;2.92;;
47431;SDS011;33183;52.290;6.144;2023-02-04T08:13:31;5.93;;;2.58;;
47431;SDS011;33183;52.290;6.144;2023-02-04T08:15:57;7.43;;;2.70;;
47431;SDS011;33183;52.290;6.144;2023-02-04T08:18:22;8.18;;;2.83;;
47431;SDS011;33183;52.290;6.144;2023-02-04T08:20:49;11.23;;;2.20;;
47431;SDS011;33183;52.290;6.144;2023-02-04T08:23:14;6.22;;;2.30;;
47431;SDS011;33183;52.290;6.144;2023-02-04T08:25:39;6.15;;;2.92;;
47431;SDS011;33183;52.290;6.144;2023-02-04T08:28:05;6.07;;;2.53;;
47431;SDS011;33183;52.290;6.144;2023-02-04T08:30:30;8.38;;;2.35;;
47431;SDS011;33183;52.290;6.144;2023-02-04T08:32:55;7.40;;;2.70;;
47431;SDS011;33183;52.290;6.144;2023-02-04T08:35:20;6.32;;;2.55;;
47431;SDS011;33183;52.290;6.144;2023-02-04T08:37:46;10.93;;;2.65;;
47431;SDS011;33183;52.290;6.144;2023-02-04T08:40:11;5.95;;;2.35;;
47431;SDS011;33183;52.290;6.144;2023-02-04T08:42:36;5.53;;;2.38;;
47431;SDS011;33183;52.290;6.144;2023-02-04T08:45:02;6.68;;;2.22;;
47431;SDS011;33183;52.290;6.144;2023-02-04T08:47:28;7.43;;;2.58;;
47431;SDS011;33183;52.290;6.144;2023-02-04T08:49:53;6.05;;;2.53;;
47431;SDS011;33183;52.290;6.144;2023-02-04T08:52:18;6.20;;;2.40;;
47431;SDS011;33183;52.290;6.144;2023-02-04T08:54:43;7.72;;;2.97;;
47431;SDS011;33183;52.290;6.144;2023-02-04T08:57:09;8.23;;;2.70;;
47431;SDS011;33183;52.290;6.144;2023-02-04T08:59:34;7.47;;;2.40;;
47431;SDS011;33183;52.290;6.144;2023-02-04T09:01:59;7.65;;;2.10;;
47431;SDS011;33183;52.290;6.144;2023-02-04T09:04:25;6.68;;;3.03;;
47431;SDS011;33183;52.290;6.144;2023-02-04T09:06:52;6.22;;;2.72;;
47431;SDS011;33183;52.290;6.144;2023-02-04T09:09:17;6.20;;;2.55;;
47431;SDS011;33183;52.290;6.144;2023-02-04T09:11:43;6.25;;;2.85;;
47431;SDS011;33183;52.290;6.144;2023-02-04T09:14:08;8.95;;;2.65;;
47431;SDS011;33183;52.290;6.144;2023-02-04T09:16:33;8.30;;;2.65;;
47431;SDS011;33183;52.290;6.144;2023-02-04T09:18:59;5.63;;;2.00;;
47431;SDS011;33183;52.290;6.144;2023-02-04T09:21:25;7.43;;;2.33;;
47431;SDS011;33183;52.290;6.144;2023-02-04T09:23:51;6.07;;;1.98;;
47431;SDS011;33183;52.290;6.144;2023-02-04T09:26:16;7.50;;;3.00;;
47431;SDS011;33183;52.290;6.144;2023-02-04T09:28:42;7.00;;;2.40;;
47431;SDS011;33183;52.290;6.144;2023-02-04T09:31:07;7.95;;;2.65;;
47431;SDS011;33183;52.290;6.144;2023-02-04T09:33:33;7.68;;;2.65;;
47431;SDS011;33183;52.290;6.144;2023-02-04T09:35:58;6.88;;;2.47;;
47431;SDS011;33183;52.290;6.144;2023-02-04T09:38:24;6.20;;;2.33;;
47431;SDS011;33183;52.290;6.144;2023-02-04T09:40:52;5.22;;;2.20;;
47431;SDS011;33183;52.290;6.144;2023-02-04T09:43:21;6.93;;;2.50;;
47431;SDS011;33183;52.290;6.144;2023-02-04T09:45:49;5.78;;;2.40;;
47431;SDS011;33183;52.290;6.144;2023-02-04T09:48:15;7.10;;;2.53;;
47431;SDS011;33183;52.290;6.144;2023-02-04T09:50:41;6.03;;;2.63;;
47431;SDS011;33183;52.290;6.144;2023-02-04T09:53:06;7.65;;;2.75;;
47431;SDS011;33183;52.290;6.144;2023-02-04T09:55:38;5.80;;;2.70;;
47431;SDS011;33183;52.290;6.144;2023-02-04T09:58:17;5.75;;;2.63;;
47431;SDS011;33183;52.290;6.144;2023-02-04T10:00:44;4.38;;;2.13;;
47431;SDS011;33183;52.290;6.144;2023-02-04T10:03:13;6.85;;;2.50;;
47431;SDS011;33183;52.290;6.144;2023-02-04T10:05:39;6.72;;;2.30;;
47431;SDS011;33183;52.290;6.144;2023-02-04T10:08:05;5.68;;;2.28;;
47431;SDS011;33183;52.290;6.144;2023-02-04T10:10:30;6.03;;;2.47;;
47431;SDS011;33183;52.290;6.144;2023-02-04T10:12:59;6.07;;;2.15;;
47431;SDS011;33183;52.290;6.144;2023-02-04T10:15:26;6.13;;;2.20;;
47431;SDS011;33183;52.290;6.144;2023-02-04T10:17:57;7.63;;;2.30;;
47431;SDS011;33183;52.290;6.144;2023-02-04T10:20:23;7.75;;;2.25;;
47431;SDS011;33183;52.290;6.144;2023-02-04T10:22:50;8.98;;;2.97;;
47431;SDS011;33183;52.290;6.144;2023-02-04T10:25:18;6.32;;;2.38;;
47431;SDS011;33183;52.290;6.144;2023-02-04T10:30:23;4.50;;;2.17;;
47431;SDS011;33183;52.290;6.144;2023-02-04T10:32:50;7.25;;;2.50;;
47431;SDS011;33183;52.290;6.144;2023-02-04T10:35:17;5.47;;;2.28;;
47431;SDS011;33183;52.290;6.144;2023-02-04T10:37:43;7.30;;;2.60;;
47431;SDS011;33183;52.290;6.144;2023-02-04T10:42:49;7.00;;;2.80;;
47431;SDS011;33183;52.290;6.144;2023-02-04T10:45:23;5.30;;;2.55;;
47431;SDS011;33183;52.290;6.144;2023-02-04T10:47:53;4.40;;;2.08;;
47431;SDS011;33183;52.290;6.144;2023-02-04T10:50:20;5.90;;;2.60;;
47431;SDS011;33183;52.290;6.144;2023-02-04T10:52:54;6.47;;;2.15;;
47431;SDS011;33183;52.290;6.144;2023-02-04T10:55:44;5.45;;;2.03;;
47431;SDS011;33183;52.290;6.144;2023-02-04T10:58:11;4.50;;;2.08;;
47431;SDS011;33183;52.290;6.144;2023-02-04T11:00:39;6.13;;;1.88;;
47431;SDS011;33183;52.290;6.144;2023-02-04T11:03:14;4.28;;;2.03;;
47431;SDS011;33183;52.290;6.144;2023-02-04T11:05:42;4.97;;;2.03;;
47431;SDS011;33183;52.290;6.144;2023-02-04T11:08:24;4.90;;;2.53;;
47431;SDS011;33183;52.290;6.144;2023-02-04T11:10:54;5.30;;;3.13;;
47431;SDS011;33183;52.290;6.144;2023-02-04T11:13:23;6.78;;;2.83;;
47431;SDS011;33183;52.290;6.144;2023-02-04T11:16:05;6.03;;;2.42;;
47431;SDS011;33183;52.290;6.144;2023-02-04T11:18:31;4.22;;;2.17;;
47431;SDS011;33183;52.290;6.144;2023-02-04T11:20:57;6.97;;;3.15;;
47431;SDS011;33183;52.290;6.144;2023-02-04T11:26:13;6.93;;;2.83;;
47431;SDS011;33183;52.290;6.144;2023-02-04T11:31:24;6.30;;;2.03;;
47431;SDS011;33183;52.290;6.144;2023-02-04T11:34:01;6.13;;;2.55;;
47431;SDS011;33183;52.290;6.144;2023-02-04T11:36:33;5.63;;;2.25;;
47431;SDS011;33183;52.290;6.144;2023-02-04T11:39:05;7.25;;;2.33;;
47431;SDS011;33183;52.290;6.144;2023-02-04T11:41:33;5.63;;;2.15;;
47431;SDS011;33183;52.290;6.144;2023-02-04T11:43:58;10.10;;;2.85;;
47431;SDS011;33183;52.290;6.144;2023-02-04T11:46:27;13.05;;;2.38;;
47431;SDS011;33183;52.290;6.144;2023-02-04T11:48:53;13.50;;;3.55;;
47431;SDS011;33183;52.290;6.144;2023-02-04T11:51:21;12.57;;;2.55;;
47431;SDS011;33183;52.290;6.144;2023-02-04T11:53:51;11.52;;;2.47;;
47431;SDS011;33183;52.290;6.144;2023-02-04T11:56:20;8.07;;;2.72;;
47431;SDS011;33183;52.290;6.144;2023-02-04T11:58:46;9.50;;;2.28;;
47431;SDS011;33183;52.290;6.144;2023-02-04T12:01:21;19.13;;;3.40;;
47431;SDS011;33183;52.290;6.144;2023-02-04T12:03:49;12.13;;;2.65;;
47431;SDS011;33183;52.290;6.144;2023-02-04T12:06:22;9.60;;;2.80;;
47431;SDS011;33183;52.290;6.144;2023-02-04T12:08:48;11.82;;;2.97;;
47431;SDS011;33183;52.290;6.144;2023-02-04T12:11:24;11.38;;;2.20;;
47431;SDS011;33183;52.290;6.144;2023-02-04T12:13:55;14.07;;;4.13;;
47431;SDS011;33183;52.290;6.144;2023-02-04T12:16:21;20.35;;;7.13;;
47431;SDS011;33183;52.290;6.144;2023-02-04T12:18:47;15.55;;;5.60;;
47431;SDS011;33183;52.290;6.144;2023-02-04T12:21:12;14.25;;;5.35;;
47431;SDS011;33183;52.290;6.144;2023-02-04T12:23:42;12.02;;;4.57;;
47431;SDS011;33183;52.290;6.144;2023-02-04T12:26:08;10.68;;;4.32;;
47431;SDS011;33183;52.290;6.144;2023-02-04T12:28:33;8.27;;;3.50;;
47431;SDS011;33183;52.290;6.144;2023-02-04T12:30:58;11.32;;;4.60;;
47431;SDS011;33183;52.290;6.144;2023-02-04T12:33:24;8.50;;;3.58;;
47431;SDS011;33183;52.290;6.144;2023-02-04T12:35:49;9.38;;;3.83;;
47431;SDS011;33183;52.290;6.144;2023-02-04T12:38:15;11.98;;;3.80;;
47431;SDS011;33183;52.290;6.144;2023-02-04T12:40:40;17.13;;;5.22;;
47431;SDS011;33183;52.290;6.144;2023-02-04T12:43:05;9.70;;;3.97;;
47431;SDS011;33183;52.290;6.144;2023-02-04T12:45:31;10.32;;;3.42;;
47431;SDS011;33183;52.290;6.144;2023-02-04T12:47:56;11.73;;;4.03;;
47431;SDS011;33183;52.290;6.144;2023-02-04T12:50:22;11.50;;;4.00;;
47431;SDS011;33183;52.290;6.144;2023-02-04T12:52:54;10.95;;;4.28;;
47431;SDS011;33183;52.290;6.144;2023-02-04T12:55:21;12.32;;;4.45;;
47431;SDS011;33183;52.290;6.144;2023-02-04T12:57:47;9.85;;;3.58;;
47431;SDS011;33183;52.290;6.144;2023-02-04T13:00:14;8.90;;;3.40;;
47431;SDS011;33183;52.290;6.144;2023-02-04T13:02:39;11.23;;;3.80;;
47431;SDS011;33183;52.290;6.144;2023-02-04T13:05:05;10.02;;;3.90;;
47431;SDS011;33183;52.290;6.144;2023-02-04T13:07:30;11.05;;;3.85;;
47431;SDS011;33183;52.290;6.144;2023-02-04T13:09:57;8.80;;;3.38;;
47431;SDS011;33183;52.290;6.144;2023-02-04T13:12:22;7.95;;;3.40;;
47431;SDS011;33183;52.290;6.144;2023-02-04T13:14:48;10.63;;;3.30;;
47431;SDS011;33183;52.290;6.144;2023-02-04T13:17:13;7.88;;;3.72;;
47431;SDS011;33183;52.290;6.144;2023-02-04T13:19:38;8.15;;;3.53;;
47431;SDS011;33183;52.290;6.144;2023-02-04T13:22:03;9.00;;;3.55;;
47431;SDS011;33183;52.290;6.144;2023-02-04T13:24:29;9.63;;;3.47;;
47431;SDS011;33183;52.290;6.144;2023-02-04T13:26:54;10.38;;;4.43;;
47431;SDS011;33183;52.290;6.144;2023-02-04T13:29:19;9.15;;;3.40;;
47431;SDS011;33183;52.290;6.144;2023-02-04T13:31:46;9.93;;;3.20;;
47431;SDS011;33183;52.290;6.144;2023-02-04T13:34:11;8.10;;;3.72;;
47431;SDS011;33183;52.290;6.144;2023-02-04T13:36:37;10.57;;;3.40;;
47431;SDS011;33183;52.290;6.144;2023-02-04T13:39:02;8.48;;;3.17;;
47431;SDS011;33183;52.290;6.144;2023-02-04T13:41:28;9.35;;;3.28;;
47431;SDS011;33183;52.290;6.144;2023-02-04T13:43:54;7.10;;;3.13;;
47431;SDS011;33183;52.290;6.144;2023-02-04T13:46:20;7.45;;;3.35;;
47431;SDS011;33183;52.290;6.144;2023-02-04T13:48:45;6.15;;;2.75;;
47431;SDS011;33183;52.290;6.144;2023-02-04T13:51:11;7.30;;;3.05;;
47431;SDS011;33183;52.290;6.144;2023-02-04T13:53:36;8.00;;;3.17;;
47431;SDS011;33183;52.290;6.144;2023-02-04T13:56:02;9.23;;;3.30;;
47431;SDS011;33183;52.290;6.144;2023-02-04T13:58:27;7.38;;;2.72;;
47431;SDS011;33183;52.290;6.144;2023-02-04T14:00:53;9.43;;;3.03;;
47431;SDS011;33183;52.290;6.144;2023-02-04T14:03:24;7.00;;;2.63;;
47431;SDS011;33183;52.290;6.144;2023-02-04T14:08:15;9.43;;;3.25;;
47431;SDS011;33183;52.290;6.144;2023-02-04T14:10:41;14.27;;;3.17;;
47431;SDS011;33183;52.290;6.144;2023-02-04T14:13:06;10.13;;;3.35;;
47431;SDS011;33183;52.290;6.144;2023-02-04T14:15:31;8.75;;;3.33;;
47431;SDS011;33183;52.290;6.144;2023-02-04T14:17:58;8.88;;;3.10;;
47431;SDS011;33183;52.290;6.144;2023-02-04T14:20:24;7.70;;;2.90;;
47431;SDS011;33183;52.290;6.144;2023-02-04T14:22:49;8.25;;;3.30;;
47431;SDS011;33183;52.290;6.144;2023-02-04T14:25:14;9.13;;;3.40;;
47431;SDS011;33183;52.290;6.144;2023-02-04T14:27:40;7.68;;;2.95;;
47431;SDS011;33183;52.290;6.144;2023-02-04T14:30:07;8.07;;;3.28;;
47431;SDS011;33183;52.290;6.144;2023-02-04T14:32:48;10.93;;;3.10;;
47431;SDS011;33183;52.290;6.144;2023-02-04T14:35:14;5.93;;;1.95;;
47431;SDS011;33183;52.290;6.144;2023-02-04T14:37:40;4.32;;;1.48;;
47431;SDS011;33183;52.290;6.144;2023-02-04T14:40:05;4.35;;;1.90;;
47431;SDS011;33183;52.290;6.144;2023-02-04T14:42:31;7.03;;;2.05;;
47431;SDS011;33183;52.290;6.144;2023-02-04T14:44:57;5.88;;;1.83;;
47431;SDS011;33183;52.290;6.144;2023-02-04T14:47:22;5.18;;;1.90;;
47431;SDS011;33183;52.290;6.144;2023-02-04T14:49:47;6.57;;;1.83;;
47431;SDS011;33183;52.290;6.144;2023-02-04T14:52:13;4.32;;;1.90;;